createdAt,value
2018-04-23T00:00:58.286Z,0.00
2018-04-23T00:02:51.161Z,0.00
2018-04-23T00:03:51.133Z,0.00
2018-04-23T00:05:43.994Z,0.00
2018-04-23T00:06:43.978Z,0.00
2018-04-23T00:08:36.846Z,0.00
2018-04-23T00:09:36.818Z,0.00
2018-04-23T00:11:29.676Z,0.00
2018-04-23T00:12:29.657Z,0.00
2018-04-23T00:14:22.528Z,0.00
2018-04-23T00:15:22.499Z,0.00
2018-04-23T00:17:15.362Z,0.00
2018-04-23T00:18:15.345Z,0.00
2018-04-23T00:20:08.217Z,0.00
2018-04-23T00:21:08.190Z,0.00
2018-04-23T00:23:01.060Z,0.00
2018-04-23T00:24:01.025Z,0.00
2018-04-23T00:25:53.906Z,0.00
2018-04-23T00:26:53.870Z,0.00
2018-04-23T00:28:46.724Z,0.00
2018-04-23T00:29:46.713Z,0.00
2018-04-23T00:31:39.580Z,0.00
2018-04-23T00:32:39.556Z,0.00
2018-04-23T00:34:32.412Z,0.00
2018-04-23T00:35:32.394Z,0.00
2018-04-23T00:37:25.263Z,0.00
2018-04-23T00:38:25.230Z,0.00
2018-04-23T00:40:18.092Z,0.00
2018-04-23T00:41:18.075Z,0.00
2018-04-23T00:43:10.952Z,0.00
2018-04-23T00:44:10.914Z,0.00
2018-04-23T00:46:03.764Z,0.00
2018-04-23T00:47:03.753Z,0.00
2018-04-23T00:48:56.622Z,0.00
2018-04-23T00:49:56.592Z,0.00
2018-04-23T00:51:49.450Z,0.00
2018-04-23T00:52:49.434Z,0.00
2018-04-23T00:54:42.308Z,0.00
2018-04-23T00:55:42.275Z,0.00
2018-04-23T00:57:35.131Z,0.00
2018-04-23T00:58:35.118Z,0.00
2018-04-23T01:00:27.985Z,0.00
2018-04-23T01:01:27.958Z,0.00
2018-04-23T01:03:20.812Z,0.00
2018-04-23T01:04:20.796Z,0.00
2018-04-23T01:06:13.666Z,0.00
2018-04-23T01:07:13.637Z,0.00
2018-04-23T01:09:06.495Z,0.00
2018-04-23T01:10:06.478Z,0.00
2018-04-23T01:11:59.351Z,0.00
2018-04-23T01:12:59.319Z,0.00
2018-04-23T01:14:52.177Z,0.00
2018-04-23T01:15:52.158Z,0.00
2018-04-23T01:17:45.029Z,0.00
2018-04-23T01:18:44.999Z,0.00
2018-04-23T01:20:37.866Z,0.00
2018-04-23T01:21:37.849Z,0.00
2018-04-23T01:23:30.715Z,0.00
2018-04-23T01:24:30.691Z,0.00
2018-04-23T01:26:23.550Z,0.00
2018-04-23T01:27:23.534Z,0.00
2018-04-23T01:29:16.402Z,0.00
2018-04-23T01:30:16.374Z,0.00
2018-04-23T01:32:09.231Z,0.00
2018-04-23T01:33:09.217Z,0.00
2018-04-23T01:35:02.086Z,0.00
2018-04-23T01:36:02.055Z,0.00
2018-04-23T01:37:54.913Z,0.00
2018-04-23T01:38:54.901Z,0.00
2018-04-23T01:40:47.767Z,0.00
2018-04-23T01:41:47.735Z,0.00
2018-04-23T01:43:40.593Z,0.00
2018-04-23T01:44:40.577Z,0.00
2018-04-23T01:46:33.448Z,0.00
2018-04-23T01:47:33.418Z,0.00
2018-04-23T01:49:26.269Z,0.00
2018-04-23T01:50:26.253Z,0.00
2018-04-23T01:52:19.125Z,0.00
2018-04-23T01:53:19.094Z,0.00
2018-04-23T01:55:11.954Z,0.00
2018-04-23T01:56:11.938Z,0.00
2018-04-23T01:58:04.807Z,0.00
2018-04-23T01:59:04.778Z,0.00
2018-04-23T02:00:57.636Z,0.00
2018-04-23T02:01:57.620Z,0.00
2018-04-23T02:03:50.488Z,0.00
2018-04-23T02:04:50.460Z,0.00
2018-04-23T02:06:43.313Z,0.00
2018-04-23T02:07:43.297Z,0.00
2018-04-23T02:09:36.167Z,0.00
2018-04-23T02:10:36.140Z,0.00
2018-04-23T02:12:28.994Z,0.00
2018-04-23T02:13:28.976Z,0.00
2018-04-23T02:15:21.856Z,0.00
2018-04-23T02:16:21.818Z,0.00
2018-04-23T02:18:14.681Z,0.00
2018-04-23T02:19:14.660Z,0.00
2018-04-23T02:21:07.531Z,0.00
2018-04-23T02:22:07.502Z,0.00
2018-04-23T02:24:00.355Z,0.00
2018-04-23T02:25:00.339Z,0.00
2018-04-23T02:26:53.204Z,0.00
2018-04-23T02:27:53.179Z,0.00
2018-04-23T02:29:46.039Z,0.00
2018-04-23T02:30:46.024Z,0.00
2018-04-23T02:32:38.885Z,0.00
2018-04-23T02:33:38.856Z,0.00
2018-04-23T02:35:31.721Z,0.00
2018-04-23T02:36:31.698Z,0.00
2018-04-23T02:38:24.592Z,0.00
2018-04-23T02:39:24.550Z,0.00
2018-04-23T02:41:17.399Z,0.00
2018-04-23T02:42:17.382Z,0.00
2018-04-23T02:44:10.252Z,0.00
2018-04-23T02:45:10.223Z,0.00
2018-04-23T02:47:03.083Z,0.00
2018-04-23T02:48:03.065Z,0.00
2018-04-23T02:49:55.936Z,0.00
2018-04-23T02:50:55.907Z,0.00
2018-04-23T02:52:48.760Z,0.00
2018-04-23T02:53:48.744Z,0.00
2018-04-23T02:55:41.612Z,0.00
2018-04-23T02:56:41.585Z,0.00
2018-04-23T02:58:34.443Z,0.00
2018-04-23T02:59:34.425Z,0.00
2018-04-23T03:01:27.298Z,0.00
2018-04-23T03:02:27.266Z,0.00
2018-04-23T03:04:20.132Z,0.00
2018-04-23T03:05:20.115Z,0.00
2018-04-23T03:07:12.976Z,0.00
2018-04-23T03:08:12.948Z,0.00
2018-04-23T03:10:05.806Z,0.00
2018-04-23T03:11:05.786Z,0.00
2018-04-23T03:12:58.658Z,0.00
2018-04-23T03:13:58.626Z,0.00
2018-04-23T03:15:51.486Z,0.00
2018-04-23T03:16:51.469Z,0.00
2018-04-23T03:18:44.336Z,0.00
2018-04-23T03:19:44.308Z,0.00
2018-04-23T03:21:37.168Z,0.00
2018-04-23T03:22:37.158Z,0.00
2018-04-23T03:24:30.023Z,0.00
2018-04-23T03:25:29.993Z,0.00
2018-04-23T03:27:22.854Z,0.00
2018-04-23T03:28:22.831Z,0.00
2018-04-23T03:30:15.699Z,0.00
2018-04-23T03:31:15.670Z,0.00
2018-04-23T03:33:08.524Z,0.00
2018-04-23T03:34:08.508Z,0.00
2018-04-23T03:36:01.376Z,0.00
2018-04-23T03:37:01.346Z,0.00
2018-04-23T03:38:54.208Z,0.00
2018-04-23T03:39:54.191Z,0.00
2018-04-23T03:41:47.063Z,0.00
2018-04-23T03:42:47.037Z,0.00
2018-04-23T03:44:39.895Z,0.00
2018-04-23T03:45:39.880Z,0.00
2018-04-23T03:47:32.746Z,0.00
2018-04-23T03:48:32.714Z,0.00
2018-04-23T03:50:25.575Z,0.00
2018-04-23T03:51:25.554Z,0.00
2018-04-23T03:53:18.428Z,0.00
2018-04-23T03:54:18.396Z,0.00
2018-04-23T03:56:11.255Z,0.00
2018-04-23T03:57:11.238Z,0.00
2018-04-23T03:59:04.107Z,0.00
2018-04-23T04:00:04.079Z,0.00
2018-04-23T04:01:56.943Z,0.00
2018-04-23T04:02:56.925Z,0.00
2018-04-23T04:04:49.793Z,0.00
2018-04-23T04:05:49.764Z,0.00
2018-04-23T04:07:42.623Z,0.00
2018-04-23T04:08:42.607Z,0.00
2018-04-23T04:10:35.477Z,0.00
2018-04-23T04:11:35.448Z,0.00
2018-04-23T04:13:28.305Z,0.00
2018-04-23T04:14:28.293Z,0.00
2018-04-23T04:16:21.298Z,0.00
2018-04-23T04:17:21.148Z,0.00
2018-04-23T04:19:14.008Z,0.00
2018-04-23T04:20:13.995Z,0.00
2018-04-23T04:22:06.872Z,5.63
2018-04-23T04:23:06.845Z,5.63
2018-04-23T04:24:59.721Z,5.63
2018-04-23T04:25:59.702Z,5.63
2018-04-23T04:27:52.573Z,11.25
2018-04-23T04:28:52.544Z,11.25
2018-04-23T04:30:45.399Z,11.25
2018-04-23T04:31:45.381Z,16.88
2018-04-23T04:33:38.251Z,16.88
2018-04-23T04:34:38.218Z,22.50
2018-04-23T04:36:31.076Z,22.50
2018-04-23T04:37:31.058Z,28.13
2018-04-23T04:39:23.928Z,33.75
2018-04-23T04:40:23.901Z,33.75
2018-04-23T04:42:16.760Z,39.38
2018-04-23T04:43:16.743Z,45.00
2018-04-23T04:45:09.610Z,50.63
2018-04-23T04:46:09.582Z,50.63
2018-04-23T04:48:02.436Z,56.25
2018-04-23T04:49:02.424Z,56.25
2018-04-23T04:50:55.299Z,61.88
2018-04-23T04:51:55.271Z,67.50
2018-04-23T04:53:48.132Z,73.13
2018-04-23T04:54:48.111Z,78.75
2018-04-23T04:56:40.981Z,84.38
2018-04-23T04:57:40.954Z,84.38
2018-04-23T04:59:33.813Z,90.00
2018-04-23T05:00:33.796Z,95.63
2018-04-23T05:02:26.673Z,101.25
2018-04-23T05:03:26.645Z,106.88
2018-04-23T05:05:19.502Z,118.13
2018-04-23T05:06:19.487Z,129.38
2018-04-23T05:08:12.362Z,135.00
2018-04-23T05:09:12.328Z,135.00
2018-04-23T05:11:05.194Z,140.63
2018-04-23T05:12:05.177Z,140.63
2018-04-23T05:13:58.055Z,140.63
2018-04-23T05:14:58.024Z,135.00
2018-04-23T05:16:50.887Z,135.00
2018-04-23T05:17:50.870Z,140.63
2018-04-23T05:19:43.743Z,151.88
2018-04-23T05:20:43.716Z,157.50
2018-04-23T05:22:36.582Z,174.38
2018-04-23T05:23:36.572Z,180.00
2018-04-23T05:25:29.442Z,202.50
2018-04-23T05:26:29.414Z,213.75
2018-04-23T05:28:22.282Z,230.63
2018-04-23T05:29:22.261Z,230.63
2018-04-23T05:31:15.141Z,236.25
2018-04-23T05:32:15.113Z,208.13
2018-04-23T05:34:07.976Z,230.63
2018-04-23T05:35:07.962Z,241.88
2018-04-23T05:37:00.836Z,247.50
2018-04-23T05:38:00.810Z,253.13
2018-04-23T05:39:53.675Z,241.88
2018-04-23T05:40:53.661Z,219.38
2018-04-23T05:42:46.539Z,157.50
2018-04-23T05:43:46.513Z,140.63
2018-04-23T05:45:39.445Z,95.63
2018-04-23T05:46:39.368Z,95.63
2018-04-23T05:48:32.247Z,101.25
2018-04-23T05:49:32.222Z,106.88
2018-04-23T05:51:25.088Z,123.75
2018-04-23T05:52:25.076Z,129.38
2018-04-23T05:54:17.956Z,129.38
2018-04-23T05:55:17.928Z,118.13
2018-04-23T05:57:10.785Z,118.13
2018-04-23T05:58:10.770Z,135.00
2018-04-23T06:00:03.648Z,146.25
2018-04-23T06:01:03.623Z,151.88
2018-04-23T06:02:56.499Z,168.75
2018-04-23T06:03:56.478Z,180.00
2018-04-23T06:05:49.353Z,191.25
2018-04-23T06:06:49.326Z,202.50
2018-04-23T06:08:42.194Z,219.38
2018-04-23T06:09:42.177Z,230.63
2018-04-23T06:11:35.063Z,281.25
2018-04-23T06:12:35.038Z,286.88
2018-04-23T06:14:27.950Z,298.13
2018-04-23T06:15:27.886Z,303.75
2018-04-23T06:17:20.766Z,320.63
2018-04-23T06:18:20.742Z,315.00
2018-04-23T06:20:13.617Z,298.13
2018-04-23T06:21:13.587Z,292.50
2018-04-23T06:23:06.470Z,315.00
2018-04-23T06:24:06.444Z,326.25
2018-04-23T06:25:59.318Z,286.88
2018-04-23T06:26:59.308Z,241.88
2018-04-23T06:28:52.201Z,168.75
2018-04-23T06:29:52.176Z,140.63
2018-04-23T06:31:45.049Z,90.00
2018-04-23T06:32:45.050Z,78.75
2018-04-23T06:34:38.489Z,73.13
2018-04-23T06:35:37.892Z,73.13
2018-04-23T06:37:30.763Z,61.88
2018-04-23T06:38:30.749Z,56.25
2018-04-23T06:40:23.630Z,45.00
2018-04-23T06:41:23.602Z,39.38
2018-04-23T06:43:16.470Z,33.75
2018-04-23T06:44:16.455Z,39.38
2018-04-23T06:46:09.398Z,39.38
2018-04-23T06:47:09.319Z,39.38
2018-04-23T06:49:02.183Z,50.63
2018-04-23T06:50:02.170Z,56.25
2018-04-23T06:51:55.048Z,61.88
2018-04-23T06:52:55.023Z,56.25
2018-04-23T06:54:47.895Z,45.00
2018-04-23T06:55:47.878Z,33.75
2018-04-23T06:57:40.755Z,16.88
2018-04-23T06:58:40.729Z,11.25
2018-04-23T07:00:33.596Z,5.63
2018-04-23T07:01:33.580Z,5.63
2018-04-23T07:03:26.457Z,5.63
2018-04-23T07:04:26.427Z,5.63
2018-04-23T07:06:19.288Z,11.25
2018-04-23T07:07:19.273Z,11.25
2018-04-23T07:09:12.144Z,11.25
2018-04-23T07:10:12.113Z,11.25
2018-04-23T07:12:04.975Z,5.63
2018-04-23T07:13:04.955Z,5.63
2018-04-23T07:14:57.826Z,5.63
2018-04-23T07:15:57.794Z,11.25
2018-04-23T07:17:50.650Z,11.25
2018-04-23T07:18:50.634Z,11.25
2018-04-23T07:20:43.505Z,16.88
2018-04-23T07:21:43.473Z,22.50
2018-04-23T07:23:36.329Z,22.50
2018-04-23T07:24:36.313Z,22.50
2018-04-23T07:26:29.180Z,16.88
2018-04-23T07:27:29.149Z,16.88
2018-04-23T07:29:22.062Z,22.50
2018-04-23T07:30:21.989Z,22.50
2018-04-23T07:32:14.867Z,33.75
2018-04-23T07:33:14.834Z,45.00
2018-04-23T07:35:07.687Z,56.25
2018-04-23T07:36:07.671Z,61.88
2018-04-23T07:38:00.535Z,67.50
2018-04-23T07:39:00.506Z,73.13
2018-04-23T07:40:53.361Z,73.13
2018-04-23T07:41:53.344Z,73.13
2018-04-23T07:43:46.212Z,95.63
2018-04-23T07:44:46.182Z,106.88
2018-04-23T07:46:39.042Z,123.75
2018-04-23T07:47:39.025Z,129.38
2018-04-23T07:49:31.889Z,118.13
2018-04-23T07:50:31.859Z,106.88
2018-04-23T07:52:24.723Z,101.25
2018-04-23T07:53:24.703Z,101.25
2018-04-23T07:55:17.580Z,106.88
2018-04-23T07:56:17.546Z,106.88
2018-04-23T07:58:10.407Z,112.50
2018-04-23T07:59:10.384Z,118.13
2018-04-23T08:01:03.263Z,135.00
2018-04-23T08:02:03.231Z,140.63
2018-04-23T08:03:56.091Z,146.25
2018-04-23T08:04:56.068Z,146.25
2018-04-23T08:06:48.988Z,151.88
2018-04-23T08:07:48.906Z,151.88
2018-04-23T08:09:41.764Z,151.88
2018-04-23T08:10:41.746Z,151.88
2018-04-23T08:12:34.613Z,151.88
2018-04-23T08:13:34.583Z,157.50
2018-04-23T08:15:27.446Z,151.88
2018-04-23T08:16:27.427Z,151.88
2018-04-23T08:18:20.299Z,163.13
2018-04-23T08:19:20.268Z,168.75
2018-04-23T08:21:13.138Z,151.88
2018-04-23T08:22:13.119Z,135.00
2018-04-23T08:24:05.991Z,118.13
2018-04-23T08:25:05.962Z,112.50
2018-04-23T08:26:58.821Z,112.50
2018-04-23T08:27:58.803Z,118.13
2018-04-23T08:29:51.671Z,129.38
2018-04-23T08:30:51.641Z,140.63
2018-04-23T08:32:44.502Z,157.50
2018-04-23T08:33:44.488Z,163.13
2018-04-23T08:35:37.360Z,168.75
2018-04-23T08:36:37.327Z,163.13
2018-04-23T08:38:30.189Z,168.75
2018-04-23T08:39:30.172Z,168.75
2018-04-23T08:41:23.045Z,168.75
2018-04-23T08:42:23.020Z,163.13
2018-04-23T08:44:15.880Z,174.38
2018-04-23T08:45:15.860Z,180.00
2018-04-23T08:47:08.736Z,191.25
2018-04-23T08:48:08.713Z,196.88
2018-04-23T08:50:01.572Z,196.88
2018-04-23T08:51:01.555Z,202.50
2018-04-23T08:52:54.429Z,202.50
2018-04-23T08:53:54.405Z,208.13
2018-04-23T08:55:47.258Z,213.75
2018-04-23T08:56:47.247Z,219.38
2018-04-23T08:58:40.115Z,258.75
2018-04-23T08:59:40.085Z,281.25
2018-04-23T09:01:32.974Z,348.75
2018-04-23T09:02:32.931Z,365.63
2018-04-23T09:04:25.807Z,360.00
2018-04-23T09:05:25.776Z,331.88
2018-04-23T09:07:18.639Z,270.00
2018-04-23T09:08:18.627Z,241.88
2018-04-23T09:10:11.503Z,196.88
2018-04-23T09:11:11.470Z,185.63
2018-04-23T09:13:04.335Z,163.13
2018-04-23T09:14:04.316Z,163.13
2018-04-23T09:15:57.205Z,168.75
2018-04-23T09:16:57.161Z,180.00
2018-04-23T09:18:50.021Z,208.13
2018-04-23T09:19:50.003Z,225.00
2018-04-23T09:21:42.882Z,236.25
2018-04-23T09:22:42.850Z,230.63
2018-04-23T09:24:35.707Z,247.50
2018-04-23T09:25:35.691Z,270.00
2018-04-23T09:27:28.561Z,331.88
2018-04-23T09:28:28.534Z,360.00
2018-04-23T09:30:21.396Z,360.00
2018-04-23T09:31:21.376Z,354.38
2018-04-23T09:33:14.252Z,360.00
2018-04-23T09:34:14.224Z,376.88
2018-04-23T09:36:07.084Z,438.75
2018-04-23T09:37:07.067Z,421.88
2018-04-23T09:38:59.967Z,461.25
2018-04-23T09:39:59.919Z,472.50
2018-04-23T09:41:52.786Z,472.50
2018-04-23T09:42:52.774Z,483.75
2018-04-23T09:44:45.657Z,489.38
2018-04-23T09:45:45.632Z,489.38
2018-04-23T09:47:38.498Z,500.63
2018-04-23T09:48:38.485Z,483.75
2018-04-23T09:50:31.367Z,534.38
2018-04-23T09:51:31.348Z,540.00
2018-04-23T09:53:24.215Z,528.75
2018-04-23T09:54:24.207Z,489.38
2018-04-23T09:56:17.096Z,461.25
2018-04-23T09:57:17.064Z,450.00
2018-04-23T09:59:09.932Z,421.88
2018-04-23T10:00:09.923Z,421.88
2018-04-23T10:02:02.806Z,444.38
2018-04-23T10:03:02.782Z,450.00
2018-04-23T10:04:55.656Z,455.63
2018-04-23T10:05:55.645Z,444.38
2018-04-23T10:07:48.521Z,416.25
2018-04-23T10:08:48.501Z,405.00
2018-04-23T10:10:41.439Z,382.50
2018-04-23T10:11:41.352Z,376.88
2018-04-23T10:13:34.237Z,399.38
2018-04-23T10:14:34.213Z,410.63
2018-04-23T10:16:27.088Z,416.25
2018-04-23T10:17:27.076Z,433.13
2018-04-23T10:19:19.956Z,438.75
2018-04-23T10:20:19.933Z,438.75
2018-04-23T10:22:12.811Z,421.88
2018-04-23T10:23:12.790Z,399.38
2018-04-23T10:25:05.673Z,416.25
2018-04-23T10:26:05.656Z,388.13
2018-04-23T10:27:58.522Z,382.50
2018-04-23T10:28:58.511Z,382.50
2018-04-23T10:30:51.395Z,371.25
2018-04-23T10:31:51.371Z,382.50
2018-04-23T10:33:44.240Z,421.88
2018-04-23T10:34:44.228Z,450.00
2018-04-23T10:36:37.114Z,478.13
2018-04-23T10:37:37.087Z,472.50
2018-04-23T10:39:29.955Z,461.25
2018-04-23T10:40:29.944Z,455.63
2018-04-23T10:42:22.836Z,438.75
2018-04-23T10:43:22.810Z,416.25
2018-04-23T10:45:15.681Z,382.50
2018-04-23T10:46:15.672Z,371.25
2018-04-23T10:48:08.558Z,331.88
2018-04-23T10:49:08.540Z,298.13
2018-04-23T10:51:01.466Z,264.38
2018-04-23T10:52:01.403Z,241.88
2018-04-23T10:53:54.284Z,213.75
2018-04-23T10:54:54.261Z,196.88
2018-04-23T10:56:47.135Z,191.25
2018-04-23T10:57:47.120Z,174.38
2018-04-23T10:59:40.003Z,157.50
2018-04-23T11:00:39.974Z,151.88
2018-04-23T11:02:32.840Z,140.63
2018-04-23T11:03:32.828Z,140.63
2018-04-23T11:05:25.704Z,151.88
2018-04-23T11:06:25.679Z,163.13
2018-04-23T11:08:18.543Z,185.63
2018-04-23T11:09:18.530Z,191.25
2018-04-23T11:11:11.415Z,202.50
2018-04-23T11:12:11.384Z,208.13
2018-04-23T11:14:04.247Z,208.13
2018-04-23T11:15:04.237Z,213.75
2018-04-23T11:16:57.110Z,208.13
2018-04-23T11:17:57.085Z,208.13
2018-04-23T11:19:49.946Z,208.13
2018-04-23T11:20:49.932Z,213.75
2018-04-23T11:22:42.809Z,219.38
2018-04-23T11:23:42.782Z,219.38
2018-04-23T11:25:35.647Z,219.38
2018-04-23T11:26:35.633Z,219.38
2018-04-23T11:28:28.508Z,219.38
2018-04-23T11:29:28.481Z,225.00
2018-04-23T11:31:21.351Z,236.25
2018-04-23T11:32:21.338Z,241.88
2018-04-23T11:34:14.212Z,258.75
2018-04-23T11:35:14.186Z,258.75
2018-04-23T11:37:07.048Z,270.00
2018-04-23T11:38:07.035Z,275.63
2018-04-23T11:39:59.910Z,286.88
2018-04-23T11:40:59.884Z,298.13
2018-04-23T11:42:52.758Z,292.50
2018-04-23T11:43:52.742Z,286.88
2018-04-23T11:45:45.643Z,281.25
2018-04-23T11:46:45.594Z,281.25
2018-04-23T11:48:38.461Z,292.50
2018-04-23T11:49:38.449Z,298.13
2018-04-23T11:51:31.335Z,303.75
2018-04-23T11:52:31.303Z,309.38
2018-04-23T11:54:24.168Z,320.63
2018-04-23T11:55:24.154Z,320.63
2018-04-23T11:57:17.033Z,315.00
2018-04-23T11:58:17.011Z,315.00
2018-04-23T12:00:09.871Z,298.13
2018-04-23T12:01:09.858Z,298.13
2018-04-23T12:03:02.809Z,298.13
2018-04-23T12:04:02.711Z,303.75
2018-04-23T12:05:55.579Z,320.63
2018-04-23T12:06:55.562Z,331.88
2018-04-23T12:08:48.438Z,343.13
2018-04-23T12:09:48.413Z,343.13
2018-04-23T12:11:41.284Z,360.00
2018-04-23T12:12:41.266Z,365.63
2018-04-23T12:14:34.149Z,382.50
2018-04-23T12:15:34.128Z,393.75
2018-04-23T12:17:26.985Z,405.00
2018-04-23T12:18:26.970Z,410.63
2018-04-23T12:20:19.852Z,410.63
2018-04-23T12:21:19.826Z,410.63
2018-04-23T12:23:12.695Z,405.00
2018-04-23T12:24:12.680Z,410.63
2018-04-23T12:26:05.561Z,438.75
2018-04-23T12:27:05.535Z,444.38
2018-04-23T12:28:58.399Z,427.50
2018-04-23T12:29:58.389Z,399.38
2018-04-23T12:31:51.273Z,354.38
2018-04-23T12:32:51.246Z,331.88
2018-04-23T12:34:44.123Z,343.13
2018-04-23T12:35:44.110Z,303.75
2018-04-23T12:37:36.994Z,292.50
2018-04-23T12:38:36.969Z,286.88
2018-04-23T12:40:29.842Z,286.88
2018-04-23T12:41:29.830Z,309.38
2018-04-23T12:43:22.719Z,360.00
2018-04-23T12:44:22.690Z,360.00
2018-04-23T12:46:15.642Z,337.50
2018-04-23T12:47:15.556Z,320.63
2018-04-23T12:49:08.441Z,298.13
2018-04-23T12:50:08.417Z,286.88
2018-04-23T12:52:01.289Z,270.00
2018-04-23T12:53:01.283Z,264.38
2018-04-23T12:54:54.164Z,253.13
2018-04-23T12:55:54.141Z,247.50
2018-04-23T12:57:47.014Z,241.88
2018-04-23T12:58:47.002Z,241.88
2018-04-23T13:00:39.889Z,241.88
2018-04-23T13:01:39.889Z,236.25
2018-04-23T13:03:32.742Z,230.63
2018-04-23T13:04:32.731Z,236.25
2018-04-23T13:06:25.610Z,225.00
2018-04-23T13:07:25.587Z,225.00
2018-04-23T13:09:18.458Z,236.25
2018-04-23T13:10:18.449Z,236.25
2018-04-23T13:12:11.330Z,236.25
2018-04-23T13:13:11.309Z,241.88
2018-04-23T13:15:04.187Z,230.63
2018-04-23T13:16:04.173Z,230.63
2018-04-23T13:17:57.055Z,230.63
2018-04-23T13:18:57.034Z,225.00
2018-04-23T13:20:49.904Z,230.63
2018-04-23T13:21:49.896Z,225.00
2018-04-23T13:23:42.781Z,219.38
2018-04-23T13:24:42.754Z,213.75
2018-04-23T13:26:35.626Z,225.00
2018-04-23T13:27:35.617Z,225.00
2018-04-23T13:29:28.506Z,225.00
2018-04-23T13:30:28.477Z,230.63
2018-04-23T13:32:21.352Z,230.63
2018-04-23T13:33:21.337Z,230.63
2018-04-23T13:35:14.290Z,230.63
2018-04-23T13:36:14.202Z,225.00
2018-04-23T13:38:07.069Z,225.00
2018-04-23T13:39:07.058Z,230.63
2018-04-23T13:40:59.943Z,230.63
2018-04-23T13:41:59.926Z,225.00
2018-04-23T13:43:52.793Z,219.38
2018-04-23T13:44:52.782Z,219.38
2018-04-23T13:46:45.668Z,213.75
2018-04-23T13:47:45.643Z,213.75
2018-04-23T13:49:38.514Z,208.13
2018-04-23T13:50:38.505Z,202.50
2018-04-23T13:52:31.386Z,202.50
2018-04-23T13:53:31.364Z,202.50
2018-04-23T13:55:24.245Z,196.88
2018-04-23T13:56:24.235Z,202.50
2018-04-23T13:58:17.121Z,196.88
2018-04-23T13:59:17.095Z,174.38
2018-04-23T14:01:09.981Z,157.50
2018-04-23T14:02:09.964Z,163.13
2018-04-23T14:04:02.846Z,196.88
2018-04-23T14:05:02.824Z,168.75
2018-04-23T14:06:55.710Z,196.88
2018-04-23T14:07:55.681Z,196.88
2018-04-23T14:09:48.567Z,191.25
2018-04-23T14:10:48.541Z,191.25
2018-04-23T14:12:41.412Z,185.63
2018-04-23T14:13:41.401Z,185.63
2018-04-23T14:15:34.282Z,191.25
2018-04-23T14:16:34.259Z,185.63
2018-04-23T14:18:27.133Z,174.38
2018-04-23T14:19:27.118Z,157.50
2018-04-23T14:21:20.003Z,151.88
2018-04-23T14:22:19.979Z,157.50
2018-04-23T14:24:12.852Z,168.75
2018-04-23T14:25:12.834Z,174.38
2018-04-23T14:27:05.716Z,196.88
2018-04-23T14:28:05.698Z,213.75
2018-04-23T14:29:58.564Z,230.63
2018-04-23T14:30:58.553Z,241.88
2018-04-23T14:32:51.433Z,253.13
2018-04-23T14:33:51.407Z,253.13
2018-04-23T14:35:44.275Z,247.50
2018-04-23T14:36:44.262Z,241.88
2018-04-23T14:38:37.143Z,241.88
2018-04-23T14:39:37.116Z,241.88
2018-04-23T14:41:29.995Z,247.50
2018-04-23T14:42:29.978Z,253.13
2018-04-23T14:44:22.854Z,264.38
2018-04-23T14:45:22.872Z,270.00
2018-04-23T14:47:15.697Z,275.63
2018-04-23T14:48:15.684Z,281.25
2018-04-23T14:50:08.578Z,292.50
2018-04-23T14:51:08.547Z,292.50
2018-04-23T14:53:01.415Z,292.50
2018-04-23T14:54:01.395Z,292.50
2018-04-23T14:55:54.274Z,286.88
2018-04-23T14:56:54.249Z,281.25
2018-04-23T14:58:47.118Z,258.75
2018-04-23T14:59:47.101Z,253.13
2018-04-23T15:01:39.981Z,241.88
2018-04-23T15:02:39.953Z,230.63
2018-04-23T15:04:32.826Z,213.75
2018-04-23T15:05:32.805Z,208.13
2018-04-23T15:07:25.682Z,202.50
2018-04-23T15:08:25.661Z,202.50
2018-04-23T15:10:18.531Z,196.88
2018-04-23T15:11:18.520Z,185.63
2018-04-23T15:13:11.400Z,168.75
2018-04-23T15:14:11.369Z,163.13
2018-04-23T15:16:04.240Z,163.13
2018-04-23T15:17:04.223Z,163.13
2018-04-23T15:18:57.099Z,168.75
2018-04-23T15:19:57.072Z,168.75
2018-04-23T15:21:49.943Z,168.75
2018-04-23T15:22:49.926Z,168.75
2018-04-23T15:24:42.832Z,168.75
2018-04-23T15:25:42.773Z,168.75
2018-04-23T15:27:35.646Z,168.75
2018-04-23T15:28:35.625Z,174.38
2018-04-23T15:30:28.503Z,174.38
2018-04-23T15:31:28.472Z,174.38
2018-04-23T15:33:21.340Z,174.38
2018-04-23T15:34:21.323Z,174.38
2018-04-23T15:36:14.210Z,168.75
2018-04-23T15:37:14.179Z,163.13
2018-04-23T15:39:07.040Z,163.13
2018-04-23T15:40:07.028Z,163.13
2018-04-23T15:41:59.981Z,163.13
2018-04-23T15:42:59.887Z,168.75
2018-04-23T15:44:52.745Z,174.38
2018-04-23T15:45:52.730Z,174.38
2018-04-23T15:47:45.605Z,174.38
2018-04-23T15:48:45.581Z,174.38
2018-04-23T15:50:38.445Z,174.38
2018-04-23T15:51:38.433Z,174.38
2018-04-23T15:53:31.312Z,174.38
2018-04-23T15:54:31.283Z,174.38
2018-04-23T15:56:24.140Z,180.00
2018-04-23T15:57:24.131Z,185.63
2018-04-23T15:59:17.078Z,191.25
2018-04-23T16:00:16.973Z,185.63
2018-04-23T16:02:09.835Z,185.63
2018-04-23T16:03:09.817Z,185.63
2018-04-23T16:05:02.692Z,185.63
2018-04-23T16:06:02.667Z,180.00
2018-04-23T16:07:55.525Z,180.00
2018-04-23T16:08:55.511Z,180.00
2018-04-23T16:10:48.386Z,180.00
2018-04-23T16:11:48.358Z,180.00
2018-04-23T16:13:41.217Z,174.38
2018-04-23T16:14:41.201Z,174.38
2018-04-23T16:16:34.081Z,168.75
2018-04-23T16:17:34.069Z,163.13
2018-04-23T16:19:26.907Z,157.50
2018-04-23T16:20:26.893Z,157.50
2018-04-23T16:22:19.775Z,151.88
2018-04-23T16:23:19.750Z,151.88
2018-04-23T16:25:12.611Z,146.25
2018-04-23T16:26:12.595Z,140.63
2018-04-23T16:28:05.475Z,140.63
2018-04-23T16:29:05.448Z,140.63
2018-04-23T16:30:58.311Z,135.00
2018-04-23T16:31:58.292Z,135.00
2018-04-23T16:33:51.180Z,129.38
2018-04-23T16:34:51.138Z,129.38
2018-04-23T16:36:44.001Z,118.13
2018-04-23T16:37:43.985Z,112.50
2018-04-23T16:39:36.873Z,106.88
2018-04-23T16:40:36.829Z,106.88
2018-04-23T16:42:29.690Z,101.25
2018-04-23T16:43:29.679Z,101.25
2018-04-23T16:45:22.554Z,106.88
2018-04-23T16:46:22.522Z,106.88
2018-04-23T16:48:15.378Z,112.50
2018-04-23T16:49:15.362Z,112.50
2018-04-23T16:51:08.249Z,112.50
2018-04-23T16:52:08.223Z,112.50
2018-04-23T16:54:01.078Z,112.50
2018-04-23T16:55:01.062Z,112.50
2018-04-23T16:56:53.932Z,112.50
2018-04-23T16:57:53.905Z,112.50
2018-04-23T16:59:46.767Z,106.88
2018-04-23T17:00:46.750Z,101.25
2018-04-23T17:02:39.620Z,95.63
2018-04-23T17:03:39.588Z,95.63
2018-04-23T17:05:32.453Z,90.00
2018-04-23T17:06:32.433Z,90.00
2018-04-23T17:08:25.312Z,90.00
2018-04-23T17:09:25.298Z,84.38
2018-04-23T17:11:18.136Z,78.75
2018-04-23T17:12:18.122Z,78.75
2018-04-23T17:14:10.995Z,73.13
2018-04-23T17:15:10.961Z,73.13
2018-04-23T17:17:03.823Z,67.50
2018-04-23T17:18:03.806Z,67.50
2018-04-23T17:19:56.675Z,67.50
2018-04-23T17:20:56.645Z,67.50
2018-04-23T17:22:49.577Z,73.13
2018-04-23T17:23:49.487Z,73.13
2018-04-23T17:25:42.361Z,67.50
2018-04-23T17:26:42.332Z,67.50
2018-04-23T17:28:35.188Z,56.25
2018-04-23T17:29:35.171Z,56.25
2018-04-23T17:31:28.044Z,50.63
2018-04-23T17:32:28.016Z,45.00
2018-04-23T17:34:20.901Z,45.00
2018-04-23T17:35:20.934Z,45.00
2018-04-23T17:37:13.849Z,45.00
2018-04-23T17:38:13.732Z,45.00
2018-04-23T17:40:06.620Z,45.00
2018-04-23T17:41:06.637Z,45.00
2018-04-23T17:42:59.591Z,39.38
2018-04-23T17:43:59.448Z,39.38
2018-04-23T17:45:52.309Z,39.38
2018-04-23T17:46:52.290Z,39.38
2018-04-23T17:48:45.203Z,33.75
2018-04-23T17:49:45.152Z,33.75
2018-04-23T17:51:38.074Z,28.13
2018-04-23T17:52:38.018Z,28.13
2018-04-23T17:54:30.889Z,28.13
2018-04-23T17:55:30.923Z,28.13
2018-04-23T17:57:23.728Z,28.13
2018-04-23T17:58:23.717Z,28.13
2018-04-23T18:00:17.110Z,28.13
2018-04-23T18:01:17.078Z,28.13
2018-04-23T18:03:09.943Z,22.50
2018-04-23T18:04:09.932Z,22.50
2018-04-23T18:06:02.797Z,22.50
2018-04-23T18:07:02.767Z,22.50
2018-04-23T18:08:55.632Z,16.88
2018-04-23T18:09:55.604Z,16.88
2018-04-23T18:11:48.487Z,16.88
2018-04-23T18:12:48.444Z,16.88
2018-04-23T18:14:41.299Z,11.25
2018-04-23T18:15:41.282Z,11.25
2018-04-23T18:17:34.202Z,11.25
2018-04-23T18:18:34.132Z,11.25
2018-04-23T18:20:26.988Z,5.63
2018-04-23T18:21:26.966Z,5.63